Keyes Creek (350) Station Data

Red Flag Warning: No
Fire Weather Zone: 250
SDGE Region: North East
Lat/Lon: 33.313/-117.086

Observations

Time Wind Speed/Gust Temp(F) RH Fuel Moist Fuel Temp(F) Dewpt(F) Tmax(F) Tmin(F) Accum Precip 10-min Precip SL Press(mb)
2/27 11:40pm 205 1 G 4 50° 100% - - 50° 54.7° 40.7° - - -
2/27 11:20pm 216 0 G 1 50° 100% - - 50° 54.7° 40.7° - - -
2/27 11:10pm 175 1 G 3 50° 100% - - 50° 54.7° 40.7° - - -
2/27 11:00pm 165 2 G 3 50° 100% - - 50° 54.7° 40.7° - - -
2/27 10:50pm 186 2 G 3 50° 100% - - 50° 54.7° 40.7° - - -
2/27 10:40pm 186 2 G 3 50° 100% - - 50° 54.7° 40.7° - - -
2/27 10:30pm 184 1 G 3 50° 100% - - 50° 54.7° 40.7° - - -
2/27 10:20pm 165 0 G 1 50° 100% - - 50° 54.7° 40.7° - - -
2/27 10:10pm 262 0 G 1 50° 100% - - 50° 54.7° 40.7° - - -
2/27 10:00pm 234 0 G 1 50° 100% - - 50° 54.7° 40.7° - - -
2/27 9:50pm 58 0 G 1 50° 100% - - 50° 54.7° 40.7° - - -
2/27 9:40pm 128 1 G 2 50° 100% - - 50° 54.7° 40.7° - - -
2/27 9:30pm 27 0 G 3 50° 100% - - 50° 54.7° 40.7° - - -
2/27 9:20pm 296 1 G 5 51° 100% - - 51° 54.7° 40.7° - - -
2/27 9:10pm 206 1 G 4 51° 100% - - 51° 54.7° 40.7° - - -
2/27 9:00pm 317 1 G 3 51° 100% - - 51° 54.7° 40.7° - - -
2/27 8:50pm 195 1 G 2 51° 100% - - 51° 54.7° 40.7° - - -
2/27 8:40pm 180 2 G 2 51° 100% - - 51° 54.7° 40.7° - - -
2/27 8:30pm 175 2 G 3 51° 100% - - 51° 54.7° 40.7° - - -
2/27 8:20pm 191 1 G 2 51° 100% - - 51° 54.7° 40.7° - - -
2/27 8:10pm 174 0 G 1 51° 100% - - 51° 54.7° 40.7° - - -
2/27 8:00pm 0 0 G 0 51° 100% - - 51° 54.7° 40.7° - - -
2/27 7:50pm 348 0 G 2 51° 100% - - 51° 54.7° 40.7° - - -
2/27 7:40pm 27 0 G 1 51° 100% - - 51° 54.7° 40.7° - - -
2/27 7:30pm 284 2 G 7 52° 100% - - 52° 54.7° 40.7° - - -
2/27 7:20pm 164 1 G 2 52° 100% - - 52° 54.7° 40.7° - - -
2/27 7:10pm 229 1 G 3 52° 100% - - 52° 54.7° 40.7° - - -
2/27 7:00pm 149 1 G 4 52° 100% - - 52° 54.7° 40.7° - - -
2/27 6:50pm 166 3 G 6 52° 100% - - 52° 54.7° 40.7° - - -
2/27 6:40pm 180 5 G 11 52° 100% - - 52° 54.7° 40.7° - - -
2/27 6:30pm 171 4 G 9 53° 100% - - 53° 54.7° 40.7° - - -
2/27 6:20pm 188 3 G 8 53° 100% - - 53° 54.7° 40.7° - - -
2/27 6:10pm 183 5 G 9 53° 100% - - 53° 54.7° 40.7° - - -
2/27 6:00pm 177 5 G 11 53° 100% - - 53° 54.7° 40.7° - - -
2/27 5:50pm 178 5 G 13 53° 100% - - 53° 54.7° 40.7° - - -
2/27 5:40pm 181 3 G 9 53° 100% - - 53° 54.7° 40.7° - - -
2/27 5:30pm 175 5 G 9 53° 100% - - 53° 54.7° 40.7° - - -
2/27 5:20pm 184 6 G 13 53° 100% - - 53° 54.7° 40.7° - - -
2/27 5:10pm 179 5 G 13 53° 100% - - 53° 54.7° 40.7° - - -
2/27 5:00pm 180 6 G 13 53° 100% - - 53° 54.7° 40.7° - - -
2/27 4:50pm 176 6 G 12 53° 100% - - 53° 54.7° 40.7° - - -
2/27 4:40pm 178 5 G 11 53° 100% - - 53° 54.7° 40.7° - - -
2/27 4:30pm 174 4 G 9 53° 100% - - 53° 54.7° 40.7° - - -
2/27 4:20pm 179 4 G 8 53° 100% - - 53° 54.7° 40.7° - - -
2/27 4:10pm 187 6 G 12 53° 100% - - 53° 54.7° 40.7° - - -
2/27 4:00pm 183 7 G 14 53° 100% - - 53° 54.7° 40.7° - - -
2/27 3:50pm 177 7 G 12 53° 100% - - 53° 54.7° 40.7° - - -
2/27 3:40pm 183 7 G 13 53° 100% - - 53° 54.7° 40.7° - - -
2/27 3:30pm 182 9 G 19 53° 100% - - 53° 54.7° 40.7° - - -
2/27 3:20pm 185 8 G 14 53° 100% - - 53° 54.7° 40.7° - - -
2/27 3:10pm 181 10 G 20 53° 100% - - 53° 54.7° 40.7° - - -
2/27 3:00pm 180 9 G 18 54° 100% - - 54° 54.7° 40.7° - - -
2/27 2:50pm 182 9 G 17 54° 100% - - 54° 54.7° 40.7° - - -
2/27 2:40pm 179 10 G 16 54° 100% - - 54° 54.7° 40.7° - - -
2/27 2:30pm 182 9 G 17 54° 100% - - 54° 54.7° 40.7° - - -
2/27 2:20pm 182 9 G 17 54° 100% - - 54° 54.7° 40.7° - - -
2/27 2:10pm 188 9 G 15 54° 100% - - 54° 54.7° 40.7° - - -
2/27 2:00pm 175 9 G 18 54° 100% - - 54° 54.7° 40.7° - - -
2/27 1:50pm 181 8 G 15 54° 100% - - 54° 54.7° 40.7° - - -
2/27 1:40pm 176 7 G 14 54° 100% - - 54° 54.7° 40.7° - - -
2/27 1:30pm 182 7 G 14 54° 100% - - 54° 54.7° 40.7° - - -
2/27 1:20pm 182 9 G 17 54° 100% - - 54° 54.7° 40.7° - - -
2/27 1:10pm 179 8 G 14 54° 100% - - 54° 54.7° 40.7° - - -
2/27 1:00pm 178 6 G 16 54° 100% - - 54° 54.7° 40.7° - - -
2/27 12:50pm 176 4 G 7 53° 100% - - 53° 54.7° 40.7° - - -
2/27 12:40pm 179 4 G 8 53° 100% - - 53° 54.7° 40.7° - - -
2/27 12:30pm 185 5 G 10 53° 100% - - 53° 54.7° 40.7° - - -
2/27 12:20pm 181 4 G 7 53° 100% - - 53° 54.7° 40.7° - - -
2/27 12:10pm 176 3 G 6 53° 100% - - 53° 54.7° 40.7° - - -
2/27 12:00pm 184 3 G 6 53° 100% - - 53° 54.7° 40.7° - - -
2/27 11:50am 176 4 G 8 53° 100% - - 53° 54.7° 40.7° - - -
2/27 11:40am 171 5 G 9 53° 100% - - 53° 54.7° 40.7° - - -
2/27 11:30am 185 4 G 7 54° 100% - - 54° 54.7° 40.7° - - -
2/27 11:20am 183 4 G 8 54° 100% - - 54° 54.7° 40.7° - - -
2/27 11:10am 187 5 G 10 54° 100% - - 54° 54.7° 40.7° - - -
2/27 11:00am 187 7 G 14 54° 100% - - 54° 54.4° 40.7° - - -
2/27 10:50am 194 7 G 15 54° 100% - - 54° 54.4° 40.7° - - -
2/27 10:40am 187 7 G 11 54° 100% - - 54° 54.4° 40.7° - - -
2/27 10:30am 181 4 G 9 54° 100% - - 54° 54.4° 40.7° - - -
2/27 10:20am 179 7 G 15 54° 100% - - 54° 54.3° 40.7° - - -
2/27 10:10am 185 5 G 12 54° 100% - - 54° 54.1° 40.7° - - -
2/27 10:00am 186 3 G 6 54° 100% - - 54° 54.1° 40.7° - - -
2/27 9:50am 176 2 G 4 54° 100% - - 54° 54.1° 40.7° - - -
2/27 9:40am 176 2 G 6 54° 100% - - 54° 54.1° 40.7° - - -
2/27 9:30am 175 3 G 7 54° 100% - - 54° 53.9° 40.7° - - -
2/27 9:20am 173 4 G 8 53° 100% - - 53° 53.7° 40.7° - - -
2/27 9:10am 177 3 G 7 53° 100% - - 53° 53.6° 40.7° - - -
2/27 9:00am 164 2 G 6 53° 100% - - 53° 53.1° 40.7° - - -
2/27 8:50am 41 0 G 2 52° 100% - - 52° 52.5° 40.7° - - -
2/27 8:40am 8 0 G 2 52° 100% - - 52° 52° 40.7° - - -
2/27 8:30am 343 0 G 1 51° 100% - - 51° 51.6° 40.7° - - -
2/27 8:20am 333 0 G 1 50° 100% - - 50° 50.8° 40.7° - - -
2/27 8:10am 2 2 G 3 50° 100% - - 50° 50.8° 40.7° - - -
2/27 8:00am 22 2 G 4 51° 100% - - 51° 50.8° 40.7° - - -
2/27 7:50am 343 1 G 2 50° 100% - - 50° 50.8° 40.7° - - -
2/27 7:40am 333 1 G 2 50° 100% - - 50° 50.2° 40.7° - - -
2/27 7:30am 329 1 G 2 49° 100% - - 49° 49.9° 40.7° - - -
2/27 7:20am 353 1 G 2 49° 100% - - 49° 49.1° 40.7° - - -
2/27 7:10am 353 0 G 2 48° 100% - - 48° 48.5° 40.7° - - -
2/27 7:00am 342 2 G 4 48° 100% - - 48° 48° 40.7° - - -
2/27 6:50am 355 3 G 4 48° 100% - - 48° 48° 40.7° - - -
2/27 6:40am 7 1 G 3 48° 100% - - 48° 48° 40.7° - - -
2/27 6:30am 337 1 G 2 47° 100% - - 47° 47.4° 40.7° - - -
2/27 6:20am 346 3 G 6 47° 100% - - 47° 47.2° 40.7° - - -
2/27 6:10am 336 2 G 4 46° 100% - - 46° 46.8° 40.7° - - -
2/27 6:00am 321 1 G 4 47° 100% - - 47° 46.8° 40.7° - - -
2/27 5:50am 351 1 G 3 47° 100% - - 47° 46.8° 40.7° - - -
2/27 5:40am 25 1 G 3 46° 100% - - 46° 46.6° 40.7° - - -
2/27 5:30am 342 2 G 4 46° 100% - - 46° 46.4° 40.7° - - -
2/27 5:20am 352 1 G 4 45° 100% - - 45° 45.8° 40.7° - - -
2/27 5:10am 4 4 G 7 45° 100% - - 45° 45.8° 40.7° - - -
2/27 5:00am 348 5 G 8 45° 100% - - 45° 45.8° 40.7° - - -
2/27 4:50am 357 4 G 8 45° 100% - - 45° 45.8° 40.7° - - -
2/27 4:40am 349 3 G 6 45° 100% - - 45° 45.8° 40.7° - - -
2/27 4:30am 345 4 G 7 45° 100% - - 45° 45.8° 40.7° - - -
2/27 4:20am 347 4 G 6 45° 100% - - 45° 45.8° 40.7° - - -
2/27 4:10am 330 1 G 3 45° 100% - - 45° 45.8° 40.7° - - -
2/27 4:00am 5 2 G 4 45° 100% - - 45° 45.8° 40.7° - - -
2/27 3:50am 352 2 G 4 45° 100% - - 45° 45.8° 40.7° - - -
2/27 3:40am 298 1 G 4 45° 100% - - 45° 45.8° 40.7° - - -
2/27 3:30am 348 3 G 6 44° 100% - - 44° 45.8° 40.7° - - -
2/27 3:20am 358 4 G 7 44° 100% - - 44° 45.8° 40.7° - - -
2/27 3:10am 349 4 G 8 44° 100% - - 44° 45.8° 40.7° - - -
2/27 3:00am 356 3 G 4 45° 100% - - 45° 45.8° 40.7° - - -
2/27 2:50am 1 2 G 4 45° 100% - - 45° 45.8° 40.7° - - -
2/27 2:40am 30 2 G 5 45° 100% - - 45° 45.8° 40.7° - - -
2/27 2:30am 11 2 G 4 45° 100% - - 45° 45.8° 40.7° - - -
2/27 2:20am 35 2 G 5 45° 100% - - 45° 45.8° 40.7° - - -
2/27 2:10am 9 0 G 2 45° 100% - - 45° 45.6° 40.7° - - -
2/27 2:00am 8 0 G 1 45° 100% - - 45° 45.5° 40.7° - - -
2/27 1:50am 358 0 G 1 45° 100% - - 45° 45.5° 40.7° - - -
2/27 1:40am 342 1 G 3 45° 100% - - 45° 45.3° 40.7° - - -
2/27 1:30am 3 2 G 3 45° 100% - - 45° 45.2° 40.7° - - -
2/27 1:20am 354 0 G 2 45° 100% - - 45° 45° 40.7° - - -
2/27 1:10am 357 1 G 2 44° 100% - - 44° 44.4° 40.7° - - -
2/27 1:00am 325 0 G 2 44° 100% - - 44° 44.2° 40.7° - - -
2/27 12:50am 348 1 G 3 43° 100% - - 43° 43.6° 40.7° - - -
2/27 12:40am 346 1 G 2 42° 100% - - 42° 42.7° 40.7° - - -
2/27 12:30am 351 1 G 3 41° 100% - - 41° 41.8° 40.7° - - -
2/27 12:20am 339 1 G 3 41° 100% - - 41° 41.8° 40.7° - - -
2/27 12:10am 309 0 G 1 42° 100% - - 42° 41.8° 41.3° - - -
2/27 12:00am 329 0 G 1 41° 100% - - 41° 53.7° 40.7° - - -
2/26 11:50pm 357 1 G 2 41° 100% - - 41° 53.7° 40.7° - - -
2/26 11:40pm 357 1 G 2 42° 100% - - 42° 53.7° 41.4° - - -
2/26 11:30pm 352 1 G 3 42° 100% - - 42° 53.7° 41.6° - - -
2/26 11:20pm 348 1 G 2 42° 100% - - 42° 53.7° 42° - - -
2/26 11:10pm 344 1 G 2 43° 100% - - 43° 53.7° 42.3° - - -
2/26 11:00pm 357 1 G 3 43° 100% - - 43° 53.7° 42.3° - - -
2/26 10:50pm 2 2 G 2 44° 95% - - 42° 53.7° 42.9° - - -
2/26 10:40pm 332 0 G 2 45° 84% - - 41° 53.7° 43.5° - - -
2/26 10:30pm 221 1 G 2 46° 84% - - 41° 53.7° 43.5° - - -
2/26 10:20pm 209 1 G 2 46° 84% - - 42° 53.7° 43.5° - - -
2/26 10:10pm 210 1 G 2 47° 84% - - 42° 53.7° 43.5° - - -
2/26 10:00pm 173 1 G 2 47° 85% - - 43° 53.7° 43.5° - - -
2/26 9:50pm 171 1 G 3 47° 86% - - 43° 53.7° 43.5° - - -
2/26 9:40pm 192 1 G 5 47° 96% - - 46° 53.7° 43.5° - - -
2/26 9:30pm 213 0 G 2 47° 98% - - 46° 53.7° 43.5° - - -
2/26 9:20pm 218 0 G 2 47° 97% - - 46° 53.7° 43.5° - - -
2/26 9:10pm 249 1 G 2 47° 99% - - 46° 53.7° 43.5° - - -
2/26 9:00pm 251 1 G 2 46° 100% - - 46° 53.7° 43.5° - - -
2/26 8:50pm 225 1 G 2 46° 100% - - 46° 53.7° 43.5° - - -
2/26 8:40pm 223 1 G 1 46° 100% - - 46° 53.7° 43.5° - - -
2/26 8:30pm 241 0 G 2 46° 100% - - 46° 53.7° 43.5° - - -
2/26 8:20pm 218 1 G 3 46° 100% - - 46° 53.7° 43.5° - - -
2/26 8:10pm 258 0 G 2 45° 100% - - 45° 53.7° 43.5° - - -
2/26 8:00pm 329 1 G 2 44° 100% - - 44° 53.7° 43.5° - - -
2/26 7:50pm 357 1 G 1 44° 100% - - 44° 53.7° 43.5° - - -
2/26 7:40pm 340 1 G 1 44° 100% - - 44° 53.7° 43.7° - - -
2/26 7:30pm 353 1 G 2 45° 100% - - 45° 53.7° 44.3° - - -
2/26 7:20pm 357 1 G 2 46° 100% - - 46° 53.7° 45° - - -
2/26 7:10pm 306 0 G 0 46° 100% - - 46° 53.7° 45.2° - - -
2/26 7:00pm 299 0 G 1 47° 96% - - 45° 53.7° 45.2° - - -
2/26 6:50pm 236 0 G 1 47° 89% - - 44° 53.7° 45.2° - - -
2/26 6:40pm 186 1 G 4 48° 87% - - 44° 53.7° 45.2° - - -
2/26 6:30pm 177 1 G 4 48° 92% - - 46° 53.7° 45.2° - - -
2/26 6:20pm 186 1 G 3 48° 97% - - 48° 53.7° 45.2° - - -
2/26 6:10pm 187 0 G 2 49° 100% - - 49° 53.7° 45.2° - - -
2/26 6:00pm 176 0 G 2 49° 100% - - 49° 53.7° 45.2° - - -
2/26 5:50pm 177 0 G 1 49° 100% - - 49° 53.7° 45.2° - - -
2/26 5:40pm 63 0 G 2 49° 100% - - 49° 53.7° 45.2° - - -
2/26 5:30pm 155 1 G 3 49° 100% - - 49° 53.7° 45.2° - - -
2/26 5:20pm 101 1 G 2 50° 100% - - 50° 53.7° 45.2° - - -
2/26 5:10pm 136 1 G 5 50° 100% - - 50° 53.7° 45.2° - - -
2/26 5:00pm 202 1 G 4 50° 100% - - 50° 53.7° 45.2° - - -